createdAt,value
2023-05-14T00:00:07.998Z,101001.73
2023-05-14T00:03:01.513Z,101004.77
2023-05-14T00:05:35.764Z,101012.10
2023-05-14T00:08:10.254Z,101004.58
2023-05-14T00:10:44.113Z,101001.66
2023-05-14T00:13:17.918Z,100998.62
2023-05-14T00:15:52.187Z,101000.74
2023-05-14T00:18:25.684Z,100996.11
2023-05-14T00:20:59.292Z,100994.23
2023-05-14T00:23:32.900Z,100985.34
2023-05-14T00:26:06.876Z,100983.36
2023-05-14T00:28:40.503Z,100983.02
2023-05-14T00:31:14.585Z,100979.49
2023-05-14T00:33:47.977Z,100981.25
2023-05-14T00:36:21.935Z,100981.00
2023-05-14T00:38:55.526Z,100979.65
2023-05-14T00:41:28.970Z,100979.55
2023-05-14T00:44:02.866Z,100979.27
2023-05-14T00:46:36.456Z,100980.27
2023-05-14T00:49:10.241Z,100977.64
2023-05-14T00:51:47.212Z,100977.27
2023-05-14T00:54:21.786Z,100978.96
2023-05-14T00:56:55.723Z,100980.77
2023-05-14T00:59:29.416Z,100979.74
2023-05-14T01:02:03.286Z,100982.58
2023-05-14T01:04:38.166Z,100981.09
2023-05-14T01:07:22.985Z,100984.55
2023-05-14T01:10:01.942Z,100981.96
2023-05-14T01:12:36.253Z,100982.93
2023-05-14T01:15:14.001Z,100981.80
2023-05-14T01:17:52.259Z,100979.24
2023-05-14T01:20:27.399Z,100977.72
2023-05-14T01:23:01.265Z,100977.41
2023-05-14T01:25:35.605Z,100976.52
2023-05-14T01:28:15.176Z,100975.96
2023-05-14T01:30:59.529Z,100973.04
2023-05-14T01:33:35.463Z,100970.52
2023-05-14T01:36:10.026Z,100970.09
2023-05-14T01:38:46.441Z,100963.80
2023-05-14T01:41:22.981Z,100962.29
2023-05-14T01:43:56.709Z,100959.16
2023-05-14T01:46:32.726Z,100960.79
2023-05-14T01:49:06.570Z,100962.30
2023-05-14T01:51:40.368Z,100963.39
2023-05-14T01:54:14.227Z,100964.09
2023-05-14T01:56:48.145Z,100958.25
2023-05-14T01:59:21.646Z,100958.68
2023-05-14T02:01:55.057Z,100957.35
2023-05-14T02:04:28.533Z,100960.67
2023-05-14T02:07:02.363Z,100965.24
2023-05-14T02:09:36.439Z,100965.77
2023-05-14T02:12:11.566Z,100964.81
2023-05-14T02:14:45.400Z,100961.86
2023-05-14T02:17:18.856Z,100961.95
2023-05-14T02:19:52.190Z,100964.98
2023-05-14T02:22:26.052Z,100963.44
2023-05-14T02:24:59.517Z,100957.20
2023-05-14T02:27:33.519Z,100955.23
2023-05-14T02:30:07.963Z,100950.55
2023-05-14T02:32:41.468Z,100952.57
2023-05-14T02:35:15.332Z,100951.16
2023-05-14T02:37:49.448Z,100944.41
2023-05-14T02:40:23.560Z,100946.22
2023-05-14T02:42:57.716Z,100946.73
2023-05-14T02:45:31.132Z,100945.04
2023-05-14T02:48:05.572Z,100948.94
2023-05-14T02:50:39.490Z,100949.05
2023-05-14T02:53:12.941Z,100944.71
2023-05-14T02:55:46.438Z,100945.63
2023-05-14T02:58:19.695Z,100946.00
2023-05-14T03:01:01.660Z,100945.23
2023-05-14T03:03:37.365Z,100947.71
2023-05-14T03:06:12.446Z,100952.45
2023-05-14T03:08:46.293Z,100954.00
2023-05-14T03:11:19.731Z,100951.29
2023-05-14T03:13:53.268Z,100951.27
2023-05-14T03:16:26.728Z,100950.52
2023-05-14T03:19:00.318Z,100952.54
2023-05-14T03:21:34.150Z,100954.55
2023-05-14T03:24:08.325Z,100950.60
2023-05-14T03:26:42.378Z,100945.64
2023-05-14T03:29:18.621Z,100946.89
2023-05-14T03:31:54.905Z,100946.98
2023-05-14T03:34:28.448Z,100944.80
2023-05-14T03:37:02.511Z,100942.21
2023-05-14T03:39:36.738Z,100947.36
2023-05-14T03:42:12.088Z,100948.36
2023-05-14T03:44:45.962Z,100947.61
2023-05-14T03:47:19.899Z,100945.16
2023-05-14T03:49:53.476Z,100949.02
2023-05-14T03:52:26.929Z,100944.71
2023-05-14T03:55:00.693Z,100940.71
2023-05-14T03:57:33.931Z,100935.46
2023-05-14T04:00:10.477Z,100935.30
2023-05-14T04:02:52.867Z,100928.46
2023-05-14T04:05:26.899Z,100925.91
2023-05-14T04:08:00.433Z,100924.58
2023-05-14T04:10:34.905Z,100928.25
2023-05-14T04:13:08.827Z,100928.70
2023-05-14T04:15:45.489Z,100927.67
2023-05-14T04:18:20.373Z,100924.42
2023-05-14T04:20:56.374Z,100924.89
2023-05-14T04:23:30.069Z,100927.27
2023-05-14T04:26:04.024Z,100926.30
2023-05-14T04:28:37.524Z,100927.63
2023-05-14T04:31:11.258Z,100929.98
2023-05-14T04:33:45.097Z,100930.08
2023-05-14T04:36:19.034Z,100931.64
2023-05-14T04:38:52.521Z,100930.36
2023-05-14T04:41:26.611Z,100927.89
2023-05-14T04:44:02.130Z,100924.58
2023-05-14T04:46:35.525Z,100920.53
2023-05-14T04:49:09.948Z,100925.20
2023-05-14T04:51:43.939Z,100926.02
2023-05-14T04:54:17.367Z,100924.17
2023-05-14T04:56:51.065Z,100922.88
2023-05-14T04:59:24.358Z,100928.66
2023-05-14T05:01:57.968Z,100925.38
2023-05-14T05:04:31.571Z,100929.77
2023-05-14T05:07:06.052Z,100930.05
2023-05-14T05:09:39.242Z,100929.23
2023-05-14T05:12:13.056Z,100928.77
2023-05-14T05:14:46.534Z,100924.29
2023-05-14T05:17:20.656Z,100920.74
2023-05-14T05:19:54.398Z,100915.78
2023-05-14T05:22:28.142Z,100914.58
2023-05-14T05:25:01.578Z,100909.68
2023-05-14T05:27:36.065Z,100908.41
2023-05-14T05:30:12.848Z,100904.48
2023-05-14T05:32:46.548Z,100905.27
2023-05-14T05:35:20.485Z,100905.42
2023-05-14T05:37:54.393Z,100910.87
2023-05-14T05:40:28.033Z,100914.17
2023-05-14T05:43:01.844Z,100912.52
2023-05-14T05:45:35.477Z,100907.60
2023-05-14T05:48:09.747Z,100908.53
2023-05-14T05:50:45.007Z,100905.23
2023-05-14T05:53:18.792Z,100905.30
2023-05-14T05:55:52.559Z,100909.52
2023-05-14T05:58:26.574Z,100904.67
2023-05-14T06:01:00.190Z,100904.91
2023-05-14T06:03:34.280Z,100901.54
2023-05-14T06:06:08.555Z,100899.16
2023-05-14T06:08:42.550Z,100898.11
2023-05-14T06:11:17.241Z,100898.45
2023-05-14T06:13:50.865Z,100898.95
2023-05-14T06:16:24.282Z,100901.42
2023-05-14T06:18:58.116Z,100901.89
2023-05-14T06:21:31.457Z,100901.94
2023-05-14T06:24:05.021Z,100901.14
2023-05-14T06:26:38.228Z,100896.38
2023-05-14T06:29:12.084Z,100895.97
2023-05-14T06:31:45.937Z,100898.59
2023-05-14T06:34:19.683Z,100897.05
2023-05-14T06:36:53.619Z,100891.47
2023-05-14T06:39:26.997Z,100891.65
2023-05-14T06:42:01.395Z,100884.19
2023-05-14T06:44:37.481Z,100883.87
2023-05-14T06:47:11.425Z,100880.19
2023-05-14T06:49:45.155Z,100886.02
2023-05-14T06:52:19.312Z,100885.85
2023-05-14T06:54:53.132Z,100880.60
2023-05-14T06:57:27.000Z,100876.70
2023-05-14T07:00:02.689Z,100872.81
2023-05-14T07:02:37.534Z,100873.93
2023-05-14T07:05:12.372Z,100876.50
2023-05-14T07:07:45.820Z,100874.42
2023-05-14T07:10:20.141Z,100875.08
2023-05-14T07:12:53.731Z,100877.07
2023-05-14T07:15:27.111Z,100876.89
2023-05-14T07:18:00.906Z,100874.91
2023-05-14T07:20:34.491Z,100874.48
2023-05-14T07:23:08.544Z,100873.61
2023-05-14T07:25:42.023Z,100877.74
2023-05-14T07:28:15.615Z,100877.44
2023-05-14T07:30:49.243Z,100881.29
2023-05-14T07:33:23.343Z,100878.13
2023-05-14T07:35:57.415Z,100879.01
2023-05-14T07:38:31.496Z,100878.44
2023-05-14T07:41:05.377Z,100880.84
2023-05-14T07:43:40.817Z,100878.98
2023-05-14T07:46:15.849Z,100872.13
2023-05-14T07:48:49.483Z,100870.35
2023-05-14T07:51:23.439Z,100868.14
2023-05-14T07:53:57.456Z,100866.83
2023-05-14T07:56:31.409Z,100865.20
2023-05-14T07:59:04.608Z,100860.15
2023-05-14T08:01:39.460Z,100856.56
2023-05-14T08:04:15.633Z,100855.12
2023-05-14T08:06:49.411Z,100856.05
2023-05-14T08:09:23.127Z,100854.01
2023-05-14T08:11:56.575Z,100844.41
2023-05-14T08:14:30.241Z,100843.82
2023-05-14T08:17:03.925Z,100837.73
2023-05-14T08:19:38.058Z,100831.55
2023-05-14T08:22:11.717Z,100830.23
2023-05-14T08:24:45.119Z,100827.39
2023-05-14T08:27:18.935Z,100827.42
2023-05-14T08:29:52.924Z,100825.98
2023-05-14T08:32:26.806Z,100826.99
2023-05-14T08:35:00.768Z,100825.62
2023-05-14T08:37:34.625Z,100819.84
2023-05-14T08:40:10.253Z,100823.23
2023-05-14T08:42:45.333Z,100825.55
2023-05-14T08:45:21.962Z,100825.09
2023-05-14T08:47:56.463Z,100819.37
2023-05-14T08:50:31.595Z,100811.67
2023-05-14T08:53:05.360Z,100811.19
2023-05-14T08:55:39.694Z,100806.94
2023-05-14T08:58:13.590Z,100804.73
2023-05-14T09:00:48.169Z,100800.89
2023-05-14T09:03:22.166Z,100798.35
2023-05-14T09:05:57.065Z,100792.66
2023-05-14T09:08:33.767Z,100797.91
2023-05-14T09:11:07.563Z,100798.34
2023-05-14T09:13:42.230Z,100795.34
2023-05-14T09:16:16.820Z,100793.95
2023-05-14T09:18:51.041Z,100797.97
2023-05-14T09:21:24.925Z,100792.92
2023-05-14T09:24:00.542Z,100791.62
2023-05-14T09:26:36.099Z,100794.95
2023-05-14T09:29:09.697Z,100797.62
2023-05-14T09:31:43.495Z,100806.46
2023-05-14T09:34:28.152Z,100804.41
2023-05-14T09:37:03.180Z,100796.60
2023-05-14T09:39:38.776Z,100790.19
2023-05-14T09:42:12.744Z,100785.48
2023-05-14T09:44:47.718Z,100776.65
2023-05-14T09:47:21.468Z,100777.59
2023-05-14T09:49:55.890Z,100777.81
2023-05-14T09:52:30.107Z,100779.69
2023-05-14T09:55:04.476Z,100778.48
2023-05-14T09:57:38.487Z,100769.85
2023-05-14T10:00:14.470Z,100769.65
2023-05-14T10:02:50.081Z,100766.16
2023-05-14T10:05:25.131Z,100758.69
2023-05-14T10:08:01.063Z,100760.12
2023-05-14T10:10:37.291Z,100753.27
2023-05-14T10:13:15.337Z,100745.27
2023-05-14T10:15:58.682Z,100754.84
2023-05-14T10:18:38.160Z,100760.14
2023-05-14T10:21:12.616Z,100759.48
2023-05-14T10:23:46.635Z,100757.37
2023-05-14T10:26:22.410Z,100761.19
2023-05-14T10:28:58.096Z,100753.13
2023-05-14T10:31:54.030Z,100746.63
2023-05-14T10:34:44.360Z,100745.48
2023-05-14T10:37:20.089Z,100739.28
2023-05-14T10:39:55.302Z,100735.95
2023-05-14T10:42:35.695Z,100734.38
2023-05-14T10:45:11.900Z,100731.21
2023-05-14T10:47:47.205Z,100731.00
2023-05-14T10:50:24.376Z,100728.83
2023-05-14T10:52:59.382Z,100726.30
2023-05-14T10:55:33.455Z,100711.41
2023-05-14T10:58:08.090Z,100711.34
2023-05-14T11:00:43.147Z,100709.99
2023-05-14T11:03:17.486Z,100697.79
2023-05-14T11:05:51.605Z,100689.36
2023-05-14T11:08:29.406Z,100683.02
2023-05-14T11:11:01.589Z,100675.48
2023-05-14T11:13:35.790Z,100674.39
2023-05-14T11:18:47.247Z,100673.65
2023-05-14T11:21:22.500Z,100670.44
2023-05-14T11:23:58.179Z,100664.72
2023-05-14T11:26:33.236Z,100662.72
2023-05-14T11:29:08.472Z,100654.03
2023-05-14T11:31:42.425Z,100648.36
2023-05-14T11:34:16.246Z,100653.09
2023-05-14T11:36:49.761Z,100660.11
2023-05-14T11:39:23.758Z,100656.16
2023-05-14T11:41:57.431Z,100646.27
2023-05-14T11:44:31.125Z,100631.88
2023-05-14T11:47:05.422Z,100622.59
2023-05-14T11:49:39.024Z,100610.51
2023-05-14T11:52:14.629Z,100607.46
2023-05-14T11:54:49.928Z,100599.08
2023-05-14T11:57:24.235Z,100600.55
2023-05-14T12:00:00.523Z,100604.34
2023-05-14T12:02:35.241Z,100595.55
2023-05-14T12:05:14.615Z,100587.82
2023-05-14T12:07:49.655Z,100573.57
2023-05-14T12:10:23.727Z,100569.92
2023-05-14T12:12:57.460Z,100571.77
2023-05-14T12:15:31.490Z,100572.48
2023-05-14T12:18:22.917Z,100571.83
2023-05-14T12:21:03.863Z,100575.14
2023-05-14T12:23:40.269Z,100564.91
2023-05-14T12:26:14.053Z,100562.63
2023-05-14T12:28:51.154Z,100566.58
2023-05-14T12:31:32.216Z,100569.90
2023-05-14T12:34:06.273Z,100571.02
2023-05-14T12:36:39.848Z,100575.62
2023-05-14T12:39:13.873Z,100567.96
2023-05-14T12:41:47.373Z,100559.43
2023-05-14T12:44:22.993Z,100552.52
2023-05-14T12:46:57.574Z,100545.05
2023-05-14T12:49:31.472Z,100545.87
2023-05-14T12:52:22.824Z,100534.90
2023-05-14T12:54:59.628Z,100533.86
2023-05-14T12:57:35.842Z,100529.08
2023-05-14T13:00:14.184Z,100529.04
2023-05-14T13:02:48.892Z,100529.63
2023-05-14T13:05:23.470Z,100541.30
2023-05-14T13:08:00.819Z,100533.27
2023-05-14T13:10:35.061Z,100526.77
2023-05-14T13:13:08.743Z,100525.50
2023-05-14T13:15:42.252Z,100527.10
2023-05-14T13:18:15.977Z,100529.35
2023-05-14T13:20:49.545Z,100530.08
2023-05-14T13:23:23.511Z,100526.66
2023-05-14T13:25:57.335Z,100524.84
2023-05-14T13:28:31.058Z,100517.73
2023-05-14T13:31:12.625Z,100514.10
2023-05-14T13:33:46.765Z,100520.08
2023-05-14T13:36:20.620Z,100517.10
2023-05-14T13:38:54.427Z,100514.11
2023-05-14T13:41:30.342Z,100506.13
2023-05-14T13:44:04.126Z,100505.92
2023-05-14T13:46:38.047Z,100505.78
2023-05-14T13:49:12.211Z,100498.45
2023-05-14T13:51:46.160Z,100498.46
2023-05-14T13:54:20.028Z,100492.80
2023-05-14T13:56:53.850Z,100484.48
2023-05-14T13:59:28.153Z,100477.63
2023-05-14T14:02:02.172Z,100467.73
2023-05-14T14:04:36.222Z,100464.16
2023-05-14T14:07:09.946Z,100454.23
2023-05-14T14:09:43.777Z,100450.45
2023-05-14T14:12:17.675Z,100454.71
2023-05-14T14:14:51.532Z,100450.39
2023-05-14T14:17:25.160Z,100450.54
2023-05-14T14:19:59.136Z,100439.06
2023-05-14T14:22:33.990Z,100442.91
2023-05-14T14:25:09.524Z,100438.07
2023-05-14T14:27:43.616Z,100441.46
2023-05-14T14:30:18.492Z,100437.75
2023-05-14T14:32:53.029Z,100431.71
2023-05-14T14:35:27.015Z,100431.56
2023-05-14T14:38:00.713Z,100424.21
2023-05-14T14:40:36.481Z,100424.66
2023-05-14T14:43:10.248Z,100426.11
2023-05-14T14:45:48.230Z,100422.38
2023-05-14T14:48:34.536Z,100423.54
2023-05-14T14:51:09.310Z,100428.27
2023-05-14T14:53:43.211Z,100421.26
2023-05-14T14:56:16.937Z,100416.61
2023-05-14T14:58:50.799Z,100412.48
2023-05-14T15:01:24.825Z,100404.41
2023-05-14T15:03:59.178Z,100398.41
2023-05-14T15:06:32.887Z,100397.42
2023-05-14T15:09:08.172Z,100395.95
2023-05-14T15:11:42.064Z,100400.47
2023-05-14T15:14:15.612Z,100396.27
2023-05-14T15:16:51.059Z,100398.02
2023-05-14T15:19:25.186Z,100392.61
2023-05-14T15:21:59.341Z,100396.61
2023-05-14T15:24:33.127Z,100398.20
2023-05-14T15:27:07.465Z,100393.15
2023-05-14T15:29:41.800Z,100394.20
2023-05-14T15:32:15.296Z,100388.73
2023-05-14T15:34:49.207Z,100389.95
2023-05-14T15:37:22.724Z,100386.56
2023-05-14T15:39:56.555Z,100384.13
2023-05-14T15:42:30.390Z,100379.71
2023-05-14T15:45:03.934Z,100379.52
2023-05-14T15:47:37.761Z,100380.09
2023-05-14T15:50:13.039Z,100380.66
2023-05-14T15:52:47.205Z,100382.20
2023-05-14T15:55:21.061Z,100378.99
2023-05-14T15:57:54.830Z,100378.55
2023-05-14T16:00:28.761Z,100375.88
2023-05-14T16:03:02.622Z,100374.17
2023-05-14T16:05:36.905Z,100367.76
2023-05-14T16:08:11.364Z,100365.02
2023-05-14T16:10:45.065Z,100367.77
2023-05-14T16:13:18.535Z,100368.19
2023-05-14T16:15:52.313Z,100364.33
2023-05-14T16:18:26.335Z,100358.79
2023-05-14T16:20:59.692Z,100358.52
2023-05-14T16:23:33.613Z,100359.46
2023-05-14T16:26:08.853Z,100360.23
2023-05-14T16:28:43.112Z,100358.13
2023-05-14T16:31:17.082Z,100347.10
2023-05-14T16:33:50.778Z,100341.80
2023-05-14T16:36:24.607Z,100338.77
2023-05-14T16:39:07.264Z,100338.89
2023-05-14T16:41:41.817Z,100336.29
2023-05-14T16:44:15.501Z,100331.78
2023-05-14T16:46:49.377Z,100329.98
2023-05-14T16:49:23.549Z,100336.73
2023-05-14T16:51:57.419Z,100335.23
2023-05-14T16:54:31.424Z,100327.90
2023-05-14T16:57:06.317Z,100325.30
2023-05-14T16:59:39.777Z,100326.39
2023-05-14T17:02:14.314Z,100324.67
2023-05-14T17:04:48.570Z,100321.27
2023-05-14T17:07:23.428Z,100320.78
2023-05-14T17:09:58.390Z,100321.61
2023-05-14T17:12:32.167Z,100320.45
2023-05-14T17:15:06.935Z,100315.81
2023-05-14T17:17:40.844Z,100316.73
2023-05-14T17:20:16.981Z,100319.02
2023-05-14T17:22:51.241Z,100315.39
2023-05-14T17:25:26.812Z,100316.83
2023-05-14T17:28:00.942Z,100321.16
2023-05-14T17:30:34.607Z,100319.86
2023-05-14T17:33:08.745Z,100319.86
2023-05-14T17:35:44.263Z,100320.82
2023-05-14T17:38:17.993Z,100319.08
2023-05-14T17:40:51.900Z,100318.54
2023-05-14T17:43:25.652Z,100319.59
2023-05-14T17:45:59.936Z,100318.83
2023-05-14T17:48:33.908Z,100317.45
2023-05-14T17:51:07.826Z,100314.24
2023-05-14T17:53:42.028Z,100311.66
2023-05-14T17:56:17.668Z,100311.63
2023-05-14T17:58:52.760Z,100313.21
2023-05-14T18:01:29.764Z,100318.48
2023-05-14T18:04:06.204Z,100316.48
2023-05-14T18:06:41.111Z,100310.45
2023-05-14T18:09:17.020Z,100308.38
2023-05-14T18:11:54.687Z,100308.39
2023-05-14T18:14:30.000Z,100308.00
2023-05-14T18:17:04.056Z,100308.05
2023-05-14T18:19:37.808Z,100311.00
2023-05-14T18:22:12.156Z,100310.05
2023-05-14T18:24:47.052Z,100312.40
2023-05-14T18:27:26.718Z,100314.64
2023-05-14T18:30:01.012Z,100311.23
2023-05-14T18:32:35.030Z,100312.52
2023-05-14T18:35:09.882Z,100312.77
2023-05-14T18:37:46.008Z,100311.23
2023-05-14T18:40:21.116Z,100313.45
2023-05-14T18:42:57.010Z,100313.89
2023-05-14T18:45:32.775Z,100314.61
2023-05-14T18:48:07.150Z,100313.77
2023-05-14T18:50:43.247Z,100314.29
2023-05-14T18:53:17.012Z,100315.90
2023-05-14T18:55:51.289Z,100315.85
2023-05-14T18:58:28.645Z,100316.23
2023-05-14T19:01:03.549Z,100315.39
2023-05-14T19:03:41.952Z,100313.35
2023-05-14T19:06:16.162Z,100313.19
2023-05-14T19:08:50.601Z,100312.64
2023-05-14T19:11:25.001Z,100311.73
2023-05-14T19:13:59.998Z,100307.95
2023-05-14T19:16:34.813Z,100305.23
2023-05-14T19:19:09.039Z,100300.42
2023-05-14T19:21:45.844Z,100297.95
2023-05-14T19:24:21.260Z,100295.15
2023-05-14T19:26:56.050Z,100291.88
2023-05-14T19:29:33.102Z,100288.64
2023-05-14T19:32:08.063Z,100286.45
2023-05-14T19:34:41.796Z,100289.10
2023-05-14T19:37:19.444Z,100287.34
2023-05-14T19:39:54.534Z,100288.15
2023-05-14T19:42:28.925Z,100287.65
2023-05-14T19:45:03.218Z,100281.98
2023-05-14T19:47:37.846Z,100284.39
2023-05-14T19:50:14.690Z,100281.67
2023-05-14T19:52:48.884Z,100280.27
2023-05-14T19:55:26.516Z,100278.31
2023-05-14T19:58:01.750Z,100281.20
2023-05-14T20:00:37.550Z,100280.62
2023-05-14T20:03:11.751Z,100276.58
2023-05-14T20:05:47.424Z,100274.12
2023-05-14T20:08:22.045Z,100273.13
2023-05-14T20:10:57.818Z,100272.00
2023-05-14T20:13:33.097Z,100273.23
2023-05-14T20:16:08.938Z,100268.75
2023-05-14T20:18:43.467Z,100268.20
2023-05-14T20:21:18.681Z,100271.29
2023-05-14T20:23:53.401Z,100270.25
2023-05-14T20:26:27.844Z,100268.36
2023-05-14T20:29:02.260Z,100269.09
2023-05-14T20:31:36.444Z,100265.48
2023-05-14T20:34:10.603Z,100263.59
2023-05-14T20:36:44.429Z,100259.67
2023-05-14T20:39:19.929Z,100256.17
2023-05-14T20:41:53.844Z,100253.88
2023-05-14T20:44:27.607Z,100250.31
2023-05-14T20:47:01.562Z,100245.75
2023-05-14T20:49:35.876Z,100246.08
2023-05-14T20:52:10.298Z,100241.69
2023-05-14T20:54:44.313Z,100236.95
2023-05-14T20:57:18.710Z,100230.11
2023-05-14T20:59:52.474Z,100225.92
2023-05-14T21:02:26.096Z,100221.95
2023-05-14T21:04:59.992Z,100218.64
2023-05-14T21:07:33.505Z,100210.65
2023-05-14T21:10:07.948Z,100211.76
2023-05-14T21:12:42.752Z,100208.34
2023-05-14T21:15:17.530Z,100205.71
2023-05-14T21:17:51.150Z,100203.69
2023-05-14T21:20:25.022Z,100200.77
2023-05-14T21:22:59.342Z,100199.41
2023-05-14T21:25:33.179Z,100199.09
2023-05-14T21:28:06.966Z,100194.26
2023-05-14T21:30:40.975Z,100193.28
2023-05-14T21:33:15.902Z,100194.43
2023-05-14T21:35:49.205Z,100193.27
2023-05-14T21:38:23.287Z,100193.31
2023-05-14T21:40:56.786Z,100191.84
2023-05-14T21:43:30.626Z,100188.79
2023-05-14T21:46:04.398Z,100186.52
2023-05-14T21:48:40.974Z,100183.77
2023-05-14T21:51:15.039Z,100183.50
2023-05-14T21:53:49.234Z,100177.88
2023-05-14T21:56:23.020Z,100173.55
2023-05-14T21:58:57.424Z,100170.98
2023-05-14T22:01:32.541Z,100169.11
2023-05-14T22:04:08.295Z,100170.23
2023-05-14T22:06:42.313Z,100164.04
2023-05-14T22:09:15.913Z,100165.17
2023-05-14T22:11:49.356Z,100161.08
2023-05-14T22:14:23.054Z,100156.07
2023-05-14T22:16:57.003Z,100153.64
2023-05-14T22:19:31.538Z,100154.20
2023-05-14T22:22:05.679Z,100149.59
2023-05-14T22:24:39.422Z,100149.70
2023-05-14T22:27:12.958Z,100144.73
2023-05-14T22:29:46.555Z,100143.24
2023-05-14T22:32:20.222Z,100142.58
2023-05-14T22:34:53.936Z,100140.54
2023-05-14T22:37:27.512Z,100138.33
2023-05-14T22:40:02.444Z,100132.67
2023-05-14T22:42:36.286Z,100128.54
2023-05-14T22:45:12.063Z,100129.86
2023-05-14T22:47:45.699Z,100125.75
2023-05-14T22:50:19.418Z,100123.23
2023-05-14T22:52:53.278Z,100119.10
2023-05-14T22:55:27.062Z,100112.17
2023-05-14T22:58:01.115Z,100108.83
2023-05-14T23:00:34.723Z,100108.41
2023-05-14T23:03:08.703Z,100102.95
2023-05-14T23:05:42.591Z,100101.95
2023-05-14T23:08:16.262Z,100099.09
2023-05-14T23:10:49.736Z,100097.20
2023-05-14T23:13:23.941Z,100093.13
2023-05-14T23:15:57.412Z,100090.82
2023-05-14T23:18:31.766Z,100086.78
2023-05-14T23:21:05.562Z,100082.90
2023-05-14T23:23:39.239Z,100075.88
2023-05-14T23:26:13.080Z,100074.02
2023-05-14T23:28:47.619Z,100073.52
2023-05-14T23:31:21.124Z,100071.20
2023-05-14T23:33:54.648Z,100066.77
2023-05-14T23:36:28.332Z,100064.17
2023-05-14T23:39:02.107Z,100058.41
2023-05-14T23:41:35.722Z,100061.16
2023-05-14T23:44:09.893Z,100057.33
2023-05-14T23:46:43.554Z,100055.06
2023-05-14T23:49:17.729Z,100048.08
2023-05-14T23:51:51.230Z,100048.41
2023-05-14T23:54:24.596Z,100043.77
2023-05-14T23:56:58.400Z,100041.31
2023-05-14T23:59:32.288Z,100040.25
